createdAt,value
2022-12-03T00:03:38.901Z,19.73
2022-12-03T00:08:41.829Z,19.57
2022-12-03T00:13:45.393Z,21.57
2022-12-03T00:18:47.796Z,19.43
2022-12-03T00:23:50.322Z,20.03
2022-12-03T00:28:54.698Z,19.73
2022-12-03T00:33:57.198Z,20.50
2022-12-03T00:38:59.572Z,20.20
2022-12-03T00:44:01.988Z,19.57
2022-12-03T00:49:04.431Z,20.73
2022-12-03T00:54:06.805Z,20.03
2022-12-03T00:59:09.750Z,21.17
2022-12-03T01:04:12.189Z,22.80
2022-12-03T01:09:14.576Z,21.43
2022-12-03T01:14:19.319Z,22.17
2022-12-03T01:19:21.736Z,23.80
2022-12-03T01:24:24.173Z,20.83
2022-12-03T01:29:27.042Z,21.43
2022-12-03T01:34:29.488Z,23.73
2022-12-03T01:39:31.883Z,20.90
2022-12-03T01:44:36.505Z,23.07
2022-12-03T01:49:54.947Z,21.27
2022-12-03T01:55:00.073Z,21.93
2022-12-03T02:00:04.084Z,20.20
2022-12-03T02:05:17.338Z,20.43
2022-12-03T02:10:30.251Z,19.63
2022-12-03T02:15:32.726Z,19.40
2022-12-03T02:20:46.682Z,19.23
2022-12-03T02:25:49.227Z,18.63
2022-12-03T02:30:51.640Z,18.63
2022-12-03T02:35:56.058Z,19.57
2022-12-03T02:41:06.571Z,18.70
2022-12-03T02:46:09.121Z,19.70
2022-12-03T02:51:11.702Z,19.23
2022-12-03T02:56:17.702Z,20.07
2022-12-03T03:01:20.162Z,18.27
2022-12-03T03:06:24.311Z,19.80
2022-12-03T03:11:27.069Z,21.17
2022-12-03T03:16:29.728Z,20.83
2022-12-03T03:21:32.273Z,21.40
2022-12-03T03:26:34.839Z,19.90
2022-12-03T03:31:38.138Z,18.20
2022-12-03T03:36:41.200Z,20.07
2022-12-03T03:41:45.970Z,18.97
2022-12-03T03:46:48.785Z,19.60
2022-12-03T03:51:51.596Z,19.30
2022-12-03T03:56:54.008Z,19.03
2022-12-03T04:01:56.989Z,18.77
2022-12-03T04:06:59.539Z,18.73
2022-12-03T04:12:20.574Z,18.03
2022-12-03T04:17:23.217Z,19.47
2022-12-03T04:22:40.748Z,19.67
2022-12-03T04:28:01.655Z,18.10
2022-12-03T04:33:22.831Z,19.47
2022-12-03T04:38:25.201Z,18.53
2022-12-03T04:43:28.445Z,19.93
2022-12-03T04:48:30.907Z,20.03
2022-12-03T04:53:36.110Z,18.43
2022-12-03T04:58:38.673Z,20.23
2022-12-03T05:03:41.073Z,18.90
2022-12-03T05:08:43.497Z,20.07
2022-12-03T05:13:45.847Z,19.17
2022-12-03T05:18:48.354Z,20.90
2022-12-03T05:23:50.908Z,19.57
2022-12-03T05:28:53.297Z,21.60
2022-12-03T05:33:55.871Z,20.73
2022-12-03T05:38:58.255Z,20.60
2022-12-03T05:44:00.604Z,20.57
2022-12-03T05:49:02.974Z,20.80
2022-12-03T05:54:05.554Z,21.00
2022-12-03T05:59:08.060Z,20.73
2022-12-03T06:04:10.607Z,21.00
2022-12-03T06:09:13.164Z,20.37
2022-12-03T06:14:15.629Z,22.60
2022-12-03T06:19:19.350Z,23.13
2022-12-03T06:24:21.864Z,21.47
2022-12-03T06:29:24.307Z,21.77
2022-12-03T06:34:26.669Z,23.70
2022-12-03T06:39:30.752Z,23.30
2022-12-03T06:44:33.272Z,21.60
2022-12-03T06:49:35.720Z,24.60
2022-12-03T06:54:38.049Z,24.20
2022-12-03T06:59:40.484Z,24.20
2022-12-03T07:04:46.257Z,23.40
2022-12-03T07:09:48.909Z,24.43
2022-12-03T07:14:52.071Z,23.37
2022-12-03T07:19:54.748Z,23.67
2022-12-03T07:24:57.217Z,23.47
2022-12-03T07:29:59.563Z,22.87
2022-12-03T07:35:02.829Z,25.83
2022-12-03T07:40:06.176Z,28.30
2022-12-03T07:45:10.278Z,30.10
2022-12-03T07:50:28.274Z,26.23
2022-12-03T07:55:30.766Z,29.10
2022-12-03T08:00:33.479Z,24.80
2022-12-03T08:05:36.145Z,33.70
2022-12-03T08:10:38.468Z,23.67
2022-12-03T08:15:42.088Z,26.47
2022-12-03T08:20:46.421Z,27.90
2022-12-03T08:25:50.532Z,25.43
2022-12-03T08:31:19.656Z,36.53
2022-12-03T08:36:30.231Z,38.87
2022-12-03T08:41:51.131Z,29.80
2022-12-03T08:47:08.849Z,26.13
2022-12-03T08:52:20.304Z,31.43
2022-12-03T08:57:30.251Z,26.60
2022-12-03T09:02:34.402Z,25.03
2022-12-03T09:07:36.775Z,26.17
2022-12-03T09:12:39.140Z,25.23
2022-12-03T09:17:41.499Z,26.47
2022-12-03T09:22:43.925Z,23.47
2022-12-03T09:27:46.267Z,24.73
2022-12-03T09:32:48.670Z,24.60
2022-12-03T09:37:52.372Z,22.50
2022-12-03T09:42:58.471Z,24.77
2022-12-03T09:48:03.968Z,23.47
2022-12-03T09:53:06.585Z,22.20
2022-12-03T09:58:12.669Z,27.77
2022-12-03T10:03:18.593Z,24.90
2022-12-03T10:08:22.615Z,24.40
2022-12-03T10:13:30.647Z,24.93
2022-12-03T10:18:41.264Z,22.23
2022-12-03T10:23:48.252Z,20.10
2022-12-03T10:28:56.705Z,21.10
2022-12-03T10:33:59.069Z,20.90
2022-12-03T10:39:15.881Z,19.73
2022-12-03T10:44:20.771Z,18.60
2022-12-03T10:49:23.119Z,20.17
2022-12-03T10:54:27.416Z,18.10
2022-12-03T10:59:32.808Z,21.03
2022-12-03T11:04:36.487Z,20.33
2022-12-03T11:09:38.864Z,21.87
2022-12-03T11:14:51.951Z,23.43
2022-12-03T11:19:54.544Z,20.27
2022-12-03T11:25:25.109Z,19.23
2022-12-03T11:30:53.644Z,21.97
2022-12-03T11:36:05.508Z,19.50
2022-12-03T11:41:10.603Z,19.53
2022-12-03T11:46:13.089Z,19.37
2022-12-03T11:51:18.130Z,19.10
2022-12-03T11:56:24.398Z,20.00
2022-12-03T12:01:39.444Z,21.43
2022-12-03T12:06:48.765Z,19.53
2022-12-03T12:11:52.597Z,22.00
2022-12-03T12:16:55.389Z,23.50
2022-12-03T12:22:28.639Z,21.47
2022-12-03T12:27:36.286Z,20.07
2022-12-03T12:32:53.509Z,21.90
2022-12-03T12:38:00.882Z,20.77
2022-12-03T12:43:15.289Z,21.10
2022-12-03T12:48:27.642Z,20.13
2022-12-03T12:53:35.979Z,20.73
2022-12-03T12:58:38.438Z,21.67
2022-12-03T13:03:40.868Z,19.00
2022-12-03T13:08:46.863Z,21.73
2022-12-03T13:13:49.299Z,19.43
2022-12-03T13:18:57.574Z,17.83
2022-12-03T13:24:01.304Z,18.83
2022-12-03T13:29:12.042Z,18.77
2022-12-03T13:34:18.984Z,39.97
2022-12-03T13:39:31.279Z,31.50
2022-12-03T13:44:34.593Z,20.90
2022-12-03T13:49:37.083Z,21.30
2022-12-03T13:54:40.291Z,19.87
2022-12-03T13:59:42.796Z,19.23
2022-12-03T14:04:45.332Z,22.43
2022-12-03T14:09:47.934Z,21.77
2022-12-03T14:14:50.829Z,21.13
2022-12-03T14:19:53.734Z,28.60
2022-12-03T14:24:57.612Z,21.77
2022-12-03T14:30:00.153Z,22.97
2022-12-03T14:35:08.125Z,27.30
2022-12-03T14:40:16.519Z,30.97
2022-12-03T14:45:22.974Z,27.17
2022-12-03T14:50:25.424Z,24.53
2022-12-03T14:55:27.965Z,22.97
2022-12-03T15:00:30.335Z,21.90
2022-12-03T15:05:32.661Z,22.47
2022-12-03T15:10:35.062Z,22.27
2022-12-03T15:15:37.431Z,21.83
2022-12-03T15:20:39.919Z,21.90
2022-12-03T15:25:42.373Z,21.43
2022-12-03T15:30:44.835Z,21.30
2022-12-03T15:35:47.400Z,23.33
2022-12-03T15:40:49.877Z,26.47
2022-12-03T15:45:52.407Z,26.23
2022-12-03T15:50:54.789Z,27.60
2022-12-03T15:55:57.095Z,27.23
2022-12-03T16:01:00.207Z,28.07
2022-12-03T16:06:02.734Z,28.63
2022-12-03T16:11:05.603Z,31.13
2022-12-03T16:16:08.160Z,24.53
2022-12-03T16:21:10.658Z,29.80
2022-12-03T16:26:13.050Z,34.23
2022-12-03T16:31:15.478Z,36.60
2022-12-03T16:36:17.927Z,35.20
2022-12-03T16:41:22.325Z,32.67
2022-12-03T16:46:27.585Z,30.07
2022-12-03T16:51:30.338Z,29.53
2022-12-03T16:56:32.764Z,35.43
2022-12-03T17:01:35.207Z,30.90
2022-12-03T17:06:37.886Z,29.43
2022-12-03T17:11:40.478Z,31.77
2022-12-03T17:16:42.913Z,29.40
2022-12-03T17:21:46.576Z,30.33
2022-12-03T17:26:49.043Z,29.03
2022-12-03T17:31:51.426Z,31.17
2022-12-03T17:36:54.085Z,29.30
2022-12-03T17:41:56.485Z,30.20
2022-12-03T17:46:59.024Z,27.77
2022-12-03T17:52:01.616Z,30.43
2022-12-03T17:57:04.151Z,30.33
2022-12-03T18:02:06.831Z,30.17
2022-12-03T18:07:09.239Z,29.67
2022-12-03T18:12:11.651Z,27.27
2022-12-03T18:17:14.284Z,30.73
2022-12-03T18:22:17.195Z,29.37
2022-12-03T18:27:23.209Z,30.07
2022-12-03T18:32:29.181Z,28.80
2022-12-03T18:37:33.016Z,29.87
2022-12-03T18:42:35.667Z,30.27
2022-12-03T18:47:38.813Z,32.27
2022-12-03T18:52:41.271Z,28.90
2022-12-03T18:57:43.658Z,30.43
2022-12-03T19:03:02.309Z,30.43
2022-12-03T19:08:13.837Z,28.53
2022-12-03T19:13:16.474Z,29.00
2022-12-03T19:18:18.964Z,26.90
2022-12-03T19:23:21.399Z,30.67
2022-12-03T19:28:23.956Z,29.23
2022-12-03T19:33:28.679Z,29.40
2022-12-03T19:38:32.587Z,30.27
2022-12-03T19:43:36.656Z,29.90
2022-12-03T19:48:40.718Z,31.07
2022-12-03T19:53:43.375Z,30.67
2022-12-03T19:58:46.987Z,30.17
2022-12-03T20:03:52.530Z,31.50
2022-12-03T20:09:00.781Z,34.10
2022-12-03T20:14:06.683Z,31.30
2022-12-03T20:19:12.570Z,31.43
2022-12-03T20:24:17.083Z,32.00
2022-12-03T20:29:19.456Z,30.47
2022-12-03T20:34:22.005Z,31.57
2022-12-03T20:39:24.413Z,30.37
2022-12-03T20:44:26.802Z,30.10
2022-12-03T20:49:29.180Z,31.60
2022-12-03T20:54:31.656Z,31.43
2022-12-03T20:59:34.086Z,32.87
2022-12-03T21:04:36.553Z,35.73
2022-12-03T21:09:38.984Z,31.00
2022-12-03T21:14:41.329Z,32.20
2022-12-03T21:19:43.677Z,33.13
2022-12-03T21:24:46.451Z,54.97
2022-12-03T21:29:48.982Z,64.20
2022-12-03T21:34:51.365Z,39.63
2022-12-03T21:39:54.050Z,47.43
2022-12-03T21:44:56.872Z,64.93
2022-12-03T21:49:59.325Z,41.83
2022-12-03T21:55:01.731Z,50.17
2022-12-03T22:00:08.703Z,36.43
2022-12-03T22:05:13.925Z,50.23
2022-12-03T22:10:16.364Z,37.43
2022-12-03T22:15:19.689Z,36.67
2022-12-03T22:20:22.358Z,33.63
2022-12-03T22:25:24.790Z,29.77
2022-12-03T22:30:27.171Z,31.47
2022-12-03T22:35:29.580Z,28.83
2022-12-03T22:40:31.929Z,31.17
2022-12-03T22:45:35.237Z,31.40
2022-12-03T22:50:45.730Z,31.53
2022-12-03T22:55:56.290Z,27.97
2022-12-03T23:01:02.954Z,31.00
2022-12-03T23:06:10.787Z,29.57
2022-12-03T23:11:13.555Z,30.27
2022-12-03T23:16:19.914Z,30.90
2022-12-03T23:21:29.459Z,31.40
2022-12-03T23:26:37.575Z,29.93
2022-12-03T23:31:39.979Z,30.47
2022-12-03T23:36:42.544Z,26.97
2022-12-03T23:41:45.007Z,28.57
2022-12-03T23:46:48.187Z,26.73
2022-12-03T23:51:50.676Z,28.73
2022-12-03T23:56:53.168Z,28.80
